Terminal Aerodrome Forecast
Issued by NWS Denver/Boulder, CO

Home | Current Version | Previous Version | Text Only | Print | Product List | Glossary Off
Versions: 1 2 3 4 5 6 7 8 9 10 11 12 13 14 15 16 17 18 19 20 21 22 23 24 25 26 27 28 29 30 31 32 33 34 35 36 37 38 39 40 41 42 43 44 45 46 47 48 49 50

000
FTUS45 KBOU 241721
TAFDEN
TAF
KDEN 241721Z 2418/2524 28014G20KT P6SM FEW080 FEW220
     FM250100 25010KT P6SM FEW090 SCT120
     FM250300 21011KT P6SM FEW120 SCT200
     FM251300 VRB05KT P6SM FEW090 BKN200
     FM251500 07010KT P6SM FEW090 BKN200
     FM251900 03015G22KT P6SM VCTS BKN060CB PROB30 2520/2522 P6SM
      -TSRA BKN060CB=

USA.gov is the U.S. government's official web portal to all federal, state and local government web resources and services.